Terminal Aerodrome Forecast
Issued by NWS Grand Forks, ND

Home | Current Version | Previous Version | Graphics & Text | Print | Product List | Glossary On
Versions: 1 2 3 4 5 6 7 8 9 10 11 12 13 14 15 16
684
FTUS43 KFGF 252321
TAFFAR
TAF
KFAR 252321Z 2600/2624 31019G27KT P6SM VCSH BKN070
     FM260200 30014KT P6SM BKN070
     FM260500 30013KT P6SM SCT120
     FM261600 31022G30KT P6SM SKC=

USA.gov is the U.S. government's official web portal to all federal, state and local government web resources and services.